Time;durP1;ratioP1;P1;durP2;ratioP2;P2;SDS_P1;SDS_P2;PMS_P1;PMS_P2;Temp;Humidity;BMP_temperature;BMP_pressure;BME280_temperature;BME280_humidity;BME280_pressure;Samples;Min_cycle;Max_cycle;Signal;HPM_P1;HPM_P2
2023/10/20 00:00:15;;;;;;;0.70;0.70;;;19.80;74.10;;;;;;5111998;27;43392;-66
2023/10/20 00:02:46;;;;;;;0.70;0.70;;;19.70;74.00;;;;;;5111398;27;43435;-66
2023/10/20 00:05:14;;;;;;;0.70;0.70;;;19.60;74.10;;;;;;5111245;27;43501;-66
2023/10/20 00:07:43;;;;;;;0.63;0.63;;;19.50;74.20;;;;;;5111084;27;43558;-66
2023/10/20 00:10:11;;;;;;;0.60;0.60;;;19.50;74.90;;;;;;5110414;27;43407;-66
2023/10/20 00:12:39;;;;;;;0.80;0.80;;;19.50;75.00;;;;;;5111333;27;43374;-67
2023/10/20 00:15:09;;;;;;;0.67;0.67;;;19.50;75.00;;;;;;5111380;27;43503;-66
2023/10/20 00:17:37;;;;;;;0.70;0.70;;;19.40;74.80;;;;;;5111682;27;43622;-66
2023/10/20 00:20:09;;;;;;;0.60;0.60;;;19.40;74.90;;;;;;5111852;27;43938;-65
2023/10/20 00:22:37;;;;;;;0.50;0.50;;;19.30;75.30;;;;;;5111542;27;43402;-65
2023/10/20 00:25:06;;;;;;;0.70;0.70;;;19.30;75.40;;;;;;5110807;27;43453;-66
2023/10/20 00:27:34;;;;;;;0.50;0.50;;;19.40;75.10;;;;;;5102589;27;43617;-65
2023/10/20 00:30:02;;;;;;;0.70;0.70;;;19.50;74.90;;;;;;5109619;27;44447;-65
2023/10/20 00:32:33;;;;;;;0.60;0.60;;;19.50;74.80;;;;;;5111708;27;43442;-65
2023/10/20 00:35:03;;;;;;;0.60;0.60;;;19.50;74.70;;;;;;5116195;27;43432;-70
2023/10/20 00:37:32;;;;;;;0.70;0.70;;;19.50;75.10;;;;;;5125859;27;46116;-70
2023/10/20 00:40:00;;;;;;;0.57;0.57;;;19.50;75.10;;;;;;5126633;27;44037;-70
2023/10/20 00:42:30;;;;;;;0.80;0.80;;;19.50;75.00;;;;;;5124488;27;43678;-70
2023/10/20 00:44:58;;;;;;;0.60;0.60;;;19.40;74.80;;;;;;5118289;27;43390;-70
2023/10/20 00:47:27;;;;;;;0.70;0.70;;;19.40;74.90;;;;;;5133799;27;45977;-69
2023/10/20 00:49:55;;;;;;;0.80;0.80;;;19.40;75.40;;;;;;5125159;27;44674;-70
2023/10/20 00:52:23;;;;;;;0.60;0.60;;;19.30;75.50;;;;;;5125340;27;43418;-69
2023/10/20 00:54:52;;;;;;;0.80;0.80;;;19.40;75.50;;;;;;5122096;27;43431;-66
2023/10/20 00:57:21;;;;;;;0.60;0.60;;;19.40;75.30;;;;;;5109680;27;45831;-66
2023/10/20 00:59:49;;;;;;;0.50;0.50;;;19.40;75.30;;;;;;5109552;27;44373;-65
2023/10/20 01:02:17;;;;;;;0.60;0.60;;;19.30;75.40;;;;;;5109649;27;43430;-65
2023/10/20 01:04:46;;;;;;;0.77;0.77;;;19.30;75.90;;;;;;5109780;27;43367;-66
2023/10/20 01:07:14;;;;;;;0.50;0.50;;;19.40;75.60;;;;;;5109232;27;45654;-66
2023/10/20 01:09:43;;;;;;;0.70;0.70;;;19.50;75.20;;;;;;5109586;27;44857;-66
2023/10/20 01:12:13;;;;;;;0.70;0.70;;;19.70;74.80;;;;;;5109157;27;43460;-66
2023/10/20 01:14:41;;;;;;;0.73;0.73;;;19.80;74.30;;;;;;5109817;27;43427;-67
2023/10/20 01:17:09;;;;;;;0.53;0.53;;;19.80;74.00;;;;;;5111386;27;46268;-66
2023/10/20 01:19:38;;;;;;;0.60;0.60;;;19.80;74.00;;;;;;5114537;27;44692;-67
2023/10/20 01:22:06;;;;;;;0.60;0.60;;;19.70;74.10;;;;;;5108257;27;43523;-66
2023/10/20 01:24:35;;;;;;;0.70;0.70;;;19.60;74.20;;;;;;5125278;27;43379;-66
2023/10/20 01:27:03;;;;;;;0.70;0.70;;;19.60;74.90;;;;;;5112652;27;45834;-66
2023/10/20 01:29:32;;;;;;;0.70;0.70;;;19.50;74.90;;;;;;5112564;27;45566;-66
2023/10/20 01:32:00;;;;;;;0.60;0.60;;;19.50;74.90;;;;;;5113985;27;43369;-66
2023/10/20 01:34:28;;;;;;;0.60;0.60;;;19.50;74.90;;;;;;5114845;27;43450;-66
2023/10/20 01:36:56;;;;;;;0.53;0.53;;;19.40;75.00;;;;;;5112551;27;45679;-66
2023/10/20 01:39:25;;;;;;;0.60;0.60;;;19.40;75.50;;;;;;5112732;27;44069;-66
2023/10/20 01:41:54;;;;;;;0.70;0.70;;;19.40;75.50;;;;;;5112403;27;43479;-66
2023/10/20 01:44:23;;;;;;;0.60;0.60;;;19.40;75.30;;;;;;5113218;27;43421;-66
2023/10/20 01:46:53;;;;;;;0.63;0.63;;;19.30;75.10;;;;;;5110815;27;45807;-70
2023/10/20 01:49:21;;;;;;;0.60;0.60;;;19.30;75.20;;;;;;5109919;27;45019;-71
2023/10/20 01:51:49;;;;;;;0.60;0.60;;;19.30;75.40;;;;;;5109985;27;43537;-72
2023/10/20 01:54:17;;;;;;;0.60;0.60;;;19.30;75.90;;;;;;5110608;27;43447;-71
2023/10/20 01:56:45;;;;;;;0.50;0.50;;;19.30;75.70;;;;;;5109914;27;44587;-71
2023/10/20 01:59:15;;;;;;;0.57;0.57;;;19.50;75.30;;;;;;5110286;27;44724;-71
2023/10/20 02:01:43;;;;;;;0.63;0.63;;;19.60;74.70;;;;;;5110219;27;43382;-72
2023/10/20 02:04:11;;;;;;;0.50;0.50;;;19.60;74.50;;;;;;5111569;27;43427;-72
2023/10/20 02:06:39;;;;;;;0.70;0.70;;;19.70;74.50;;;;;;5125095;27;45481;-70
2023/10/20 02:09:07;;;;;;;0.60;0.60;;;19.60;74.70;;;;;;5126724;27;44668;-70
2023/10/20 02:11:36;;;;;;;0.57;0.57;;;19.60;74.70;;;;;;5127943;27;43357;-69
2023/10/20 02:14:04;;;;;;;0.50;0.50;;;19.60;74.70;;;;;;5127854;27;43776;-69
2023/10/20 02:16:34;;;;;;;0.50;0.50;;;19.50;74.50;;;;;;5128015;27;43776;-69
2023/10/20 02:19:04;;;;;;;0.70;0.70;;;19.50;74.60;;;;;;5125120;27;44694;-70
2023/10/20 02:21:33;;;;;;;0.70;0.70;;;19.50;75.20;;;;;;5126675;27;43429;-70
2023/10/20 02:24:01;;;;;;;0.50;0.50;;;19.40;75.30;;;;;;5126873;27;43875;-70
2023/10/20 02:26:29;;;;;;;0.60;0.60;;;19.50;75.30;;;;;;5126825;27;45331;-70
2023/10/20 02:28:57;;;;;;;0.60;0.60;;;19.40;75.00;;;;;;5127543;27;43357;-69
2023/10/20 02:31:25;;;;;;;0.63;0.63;;;19.40;75.10;;;;;;5123057;27;43440;-69
2023/10/20 02:33:55;;;;;;;0.70;0.70;;;19.30;75.40;;;;;;5126895;27;43460;-70
2023/10/20 02:36:24;;;;;;;0.40;0.40;;;19.40;75.70;;;;;;5126575;27;45805;-69
2023/10/20 02:38:52;;;;;;;0.67;0.67;;;19.40;75.60;;;;;;5122853;27;43622;-70
2023/10/20 02:41:20;;;;;;;0.50;0.50;;;19.30;75.40;;;;;;5126642;27;43406;-70
2023/10/20 02:43:48;;;;;;;0.60;0.60;;;19.40;75.40;;;;;;5126672;27;43428;-70
2023/10/20 02:46:16;;;;;;;0.60;0.60;;;19.30;75.40;;;;;;5126840;27;45803;-70
2023/10/20 02:48:45;;;;;;;0.60;0.60;;;19.30;76.00;;;;;;5126355;27;43347;-70
2023/10/20 02:51:15;;;;;;;0.53;0.53;;;19.40;75.90;;;;;;5127251;27;43409;-69
2023/10/20 02:53:43;;;;;;;0.60;0.60;;;19.50;75.40;;;;;;5113378;27;43451;-70
2023/10/20 02:56:13;;;;;;;0.70;0.70;;;19.60;74.80;;;;;;5114727;27;45751;-66
2023/10/20 02:58:43;;;;;;;0.50;0.50;;;19.80;74.30;;;;;;5111567;27;45152;-66
2023/10/20 03:01:12;;;;;;;0.80;0.80;;;19.80;74.00;;;;;;5111610;27;43328;-66
2023/10/20 03:03:40;;;;;;;0.60;0.60;;;19.80;74.00;;;;;;5112751;27;43497;-66
2023/10/20 03:06:09;;;;;;;0.60;0.60;;;19.70;74.10;;;;;;5120318;27;45670;-69
2023/10/20 03:08:38;;;;;;;0.60;0.60;;;19.70;74.30;;;;;;5126110;27;44573;-70
2023/10/20 03:11:07;;;;;;;0.50;0.50;;;19.60;74.80;;;;;;5126577;27;43420;-69
2023/10/20 03:13:35;;;;;;;0.60;0.60;;;19.50;74.90;;;;;;5128523;27;43433;-70
2023/10/20 03:16:03;;;;;;;0.57;0.57;;;19.50;75.00;;;;;;5120115;27;45649;-70
2023/10/20 03:18:31;;;;;;;0.53;0.53;;;19.50;75.00;;;;;;5127176;27;43621;-69
2023/10/20 03:21:01;;;;;;;0.50;0.50;;;19.50;75.00;;;;;;5126037;27;43357;-70
2023/10/20 03:23:29;;;;;;;0.57;0.57;;;19.40;75.30;;;;;;5126351;27;43376;-69
2023/10/20 03:25:58;;;;;;;0.60;0.60;;;19.40;75.70;;;;;;5116664;27;43909;-66
2023/10/20 03:28:27;;;;;;;0.50;0.50;;;19.50;75.50;;;;;;5111386;27;44721;-66
2023/10/20 03:30:55;;;;;;;0.50;0.50;;;19.50;75.30;;;;;;5110611;27;43548;-66
2023/10/20 03:33:23;;;;;;;0.60;0.60;;;19.50;75.00;;;;;;5109991;27;43897;-66
2023/10/20 03:35:59;;;;;;;0.50;0.50;;;19.50;75.00;;;;;;5119142;27;45428;-69
2023/10/20 03:38:28;;;;;;;0.60;0.60;;;19.50;75.40;;;;;;5125663;27;44807;-69
2023/10/20 03:41:07;;;;;;;0.47;0.47;;;19.50;75.30;;;;;;5115246;27;43463;-69
2023/10/20 03:43:36;;;;;;;0.60;0.60;;;19.60;75.00;;;;;;5127346;27;43348;-69
2023/10/20 03:46:05;;;;;;;0.70;0.70;;;19.60;74.70;;;;;;5124886;27;45361;-70
2023/10/20 03:48:35;;;;;;;0.60;0.60;;;19.60;74.60;;;;;;5125504;27;44723;-70
2023/10/20 03:51:05;;;;;;;0.60;0.60;;;19.60;74.80;;;;;;5126335;27;43395;-70
2023/10/20 03:53:44;;;;;;;0.50;0.50;;;19.60;74.90;;;;;;5126976;27;43425;-69
2023/10/20 03:56:14;;;;;;;0.70;0.70;;;19.60;74.80;;;;;;5125052;27;45710;-69
2023/10/20 03:58:46;;;;;;;0.50;0.50;;;19.60;74.90;;;;;;5124755;27;44883;-69
2023/10/20 04:01:14;;;;;;;0.70;0.70;;;19.60;75.00;;;;;;5126368;27;43415;-70
2023/10/20 04:03:49;;;;;;;0.60;0.60;;;19.50;75.00;;;;;;5127020;27;43392;-70
2023/10/20 04:06:17;;;;;;;0.70;0.70;;;19.50;75.60;;;;;;5126146;27;43854;-69
2023/10/20 04:08:45;;;;;;;0.63;0.63;;;19.50;75.40;;;;;;5125374;27;43647;-69
2023/10/20 04:11:14;;;;;;;0.60;0.60;;;19.50;75.30;;;;;;5118921;27;43299;-70
2023/10/20 04:13:42;;;;;;;0.40;0.40;;;19.40;75.30;;;;;;5125526;27;43344;-69
2023/10/20 04:16:13;;;;;;;0.60;0.60;;;19.40;75.30;;;;;;5126113;27;43741;-69
2023/10/20 04:18:41;;;;;;;0.53;0.53;;;19.40;75.90;;;;;;5126180;27;43439;-69
2023/10/20 04:21:11;;;;;;;0.60;0.60;;;19.40;75.70;;;;;;5126362;27;43455;-69
2023/10/20 04:23:39;;;;;;;0.60;0.60;;;19.50;75.30;;;;;;5124939;27;43444;-69
2023/10/20 04:26:18;;;;;;;0.70;0.70;;;19.70;74.90;;;;;;5115896;27;43622;-69
2023/10/20 04:29:02;;;;;;;0.40;0.40;;;19.80;74.30;;;;;;5105926;27;44096;-67
2023/10/20 04:42:55;;;;;;;0.50;0.50;;;19.60;75.10;;;;;;5110313;27;43895;-66
2023/10/20 04:46:54;;;;;;;0.57;0.57;;;19.60;75.20;;;;;;5111276;27;43492;-70
2023/10/20 04:51:25;;;;;;;0.50;0.50;;;19.50;75.10;;;;;;5107949;27;43380;-70
2023/10/20 04:53:53;;;;;;;0.60;0.60;;;19.50;75.60;;;;;;5108483;27;43425;-70
2023/10/20 04:56:33;;;;;;;0.50;0.50;;;19.50;75.60;;;;;;5108830;27;43489;-70
2023/10/20 04:59:05;;;;;;;0.53;0.53;;;19.40;75.50;;;;;;5098888;27;43676;-70
2023/10/20 05:01:47;;;;;;;0.60;0.60;;;19.40;76.00;;;;;;5111566;27;43520;-70
2023/10/20 05:04:19;;;;;;;0.50;0.50;;;19.40;75.30;;;;;;5111951;27;43367;-76
2023/10/20 05:06:57;;;;;;;0.63;0.63;;;19.40;75.60;;;;;;5110790;27;43376;-70
2023/10/20 05:09:26;;;;;;;0.70;0.70;;;19.40;76.00;;;;;;5109513;27;43921;-78
2023/10/20 05:11:54;;;;;;;0.70;0.70;;;19.50;75.70;;;;;;5110153;27;44708;-70
2023/10/20 05:14:22;;;;;;;0.60;0.60;;;19.60;75.20;;;;;;5112442;27;43342;-70
2023/10/20 05:16:52;;;;;;;0.60;0.60;;;19.60;74.80;;;;;;5112416;27;44027;-70
2023/10/20 05:19:20;;;;;;;0.60;0.60;;;19.70;74.80;;;;;;5112022;27;43697;-69
2023/10/20 05:21:48;;;;;;;0.70;0.70;;;19.60;74.70;;;;;;5111365;27;43350;-70
2023/10/20 05:24:16;;;;;;;0.50;0.50;;;19.60;74.80;;;;;;5111694;27;43382;-70
2023/10/20 05:26:46;;;;;;;0.60;0.60;;;19.50;74.90;;;;;;5103100;27;43489;-69
2023/10/20 05:29:14;;;;;;;0.70;0.70;;;19.50;75.10;;;;;;5111545;27;43980;-70
2023/10/20 05:31:43;;;;;;;0.60;0.60;;;19.40;75.20;;;;;;5111689;27;43402;-70
2023/10/20 05:34:14;;;;;;;0.60;0.60;;;19.40;75.40;;;;;;5111844;27;43804;-69
2023/10/20 05:36:42;;;;;;;0.60;0.60;;;19.40;75.60;;;;;;5112499;27;43729;-71
2023/10/20 05:39:13;;;;;;;0.67;0.67;;;19.40;76.10;;;;;;5110208;27;45985;-72
2023/10/20 05:41:43;;;;;;;0.70;0.70;;;19.40;76.10;;;;;;5102846;27;43435;-71
2023/10/20 05:44:14;;;;;;;0.60;0.60;;;19.50;75.60;;;;;;5111988;27;43364;-71
2023/10/20 05:46:42;;;;;;;0.50;0.50;;;19.70;74.90;;;;;;5112157;27;43499;-72
2023/10/20 05:49:10;;;;;;;0.70;0.70;;;20.00;74.20;;;;;;5111558;27;45258;-71
2023/10/20 05:51:40;;;;;;;0.50;0.50;;;20.20;74.10;;;;;;5111634;27;43398;-71
2023/10/20 05:54:08;;;;;;;0.40;0.40;;;20.50;72.60;;;;;;5111926;27;43397;-72
2023/10/20 05:56:36;;;;;;;0.60;0.60;;;20.70;71.90;;;;;;5126044;27;43276;-69
2023/10/20 05:59:04;;;;;;;0.57;0.57;;;20.80;71.30;;;;;;5127860;27;43843;-70
2023/10/20 06:01:32;;;;;;;0.63;0.63;;;20.90;70.90;;;;;;5127532;27;43423;-70
2023/10/20 06:04:01;;;;;;;0.60;0.60;;;21.00;70.50;;;;;;5124925;27;43399;-70
2023/10/20 06:06:30;;;;;;;0.67;0.67;;;21.10;70.30;;;;;;5128552;27;43484;-69
2023/10/20 06:09:00;;;;;;;0.67;0.67;;;21.10;71.00;;;;;;5125086;27;45313;-69
2023/10/20 06:11:28;;;;;;;0.70;0.70;;;20.90;70.40;;;;;;5127896;27;43421;-69
2023/10/20 06:13:56;;;;;;;0.60;0.60;;;20.80;70.90;;;;;;5127647;27;43409;-70
2023/10/20 06:16:25;;;;;;;0.70;0.70;;;20.60;72.20;;;;;;5128211;27;43805;-69
2023/10/20 06:18:53;;;;;;;0.70;0.70;;;20.50;71.70;;;;;;5126367;27;45667;-69
2023/10/20 06:21:21;;;;;;;0.60;0.60;;;20.40;72.00;;;;;;5127735;27;43389;-69
2023/10/20 06:23:50;;;;;;;0.80;0.80;;;20.30;72.40;;;;;;5125931;27;43408;-69
2023/10/20 06:26:20;;;;;;;0.50;0.50;;;20.20;72.80;;;;;;5128572;27;43335;-69
2023/10/20 06:28:48;;;;;;;0.70;0.70;;;20.00;73.40;;;;;;5128007;27;43738;-69
2023/10/20 06:31:32;;;;;;;0.60;0.60;;;20.00;73.60;;;;;;5126502;27;43796;-69
2023/10/20 06:34:12;;;;;;;0.70;0.70;;;20.10;73.30;;;;;;5126979;27;43413;-70
2023/10/20 06:36:46;;;;;;;0.60;0.60;;;20.20;73.10;;;;;;5127651;27;43413;-70
2023/10/20 06:39:15;;;;;;;0.60;0.60;;;20.10;73.00;;;;;;5127849;27;43560;-70
2023/10/20 06:41:44;;;;;;;0.60;0.60;;;20.10;73.30;;;;;;5127365;27;43419;-69
2023/10/20 06:44:20;;;;;;;0.70;0.70;;;20.00;73.60;;;;;;5114420;27;43418;-70
2023/10/20 06:46:48;;;;;;;0.70;0.70;;;20.00;73.70;;;;;;5127106;27;43608;-70
2023/10/20 06:49:18;;;;;;;0.70;0.70;;;20.00;73.80;;;;;;5129656;27;43949;-70
2023/10/20 06:51:47;;;;;;;0.63;0.63;;;19.90;73.90;;;;;;5119571;27;43437;-70
2023/10/20 06:54:16;;;;;;;0.67;0.67;;;19.80;74.30;;;;;;5129793;27;43372;-69
2023/10/20 06:56:46;;;;;;;0.60;0.60;;;19.70;74.50;;;;;;5128814;27;43327;-69
2023/10/20 06:59:14;;;;;;;0.60;0.60;;;19.80;75.10;;;;;;5126386;27;43610;-69
2023/10/20 07:01:42;;;;;;;0.63;0.63;;;19.90;74.00;;;;;;5126356;27;43425;-69
2023/10/20 07:04:12;;;;;;;0.77;0.77;;;20.00;73.90;;;;;;5125917;27;43418;-69
2023/10/20 07:06:40;;;;;;;0.70;0.70;;;19.90;73.80;;;;;;5126533;27;43334;-69
2023/10/20 07:09:12;;;;;;;0.70;0.70;;;19.90;74.10;;;;;;5126744;27;43614;-69
2023/10/20 07:11:41;;;;;;;0.70;0.70;;;19.90;74.10;;;;;;5126527;27;43411;-69
2023/10/20 07:14:10;;;;;;;0.70;0.70;;;19.80;74.10;;;;;;5126764;27;43335;-69
2023/10/20 07:16:39;;;;;;;0.80;0.80;;;19.80;74.20;;;;;;5121630;27;43561;-69
2023/10/20 07:19:07;;;;;;;0.63;0.63;;;19.70;74.30;;;;;;5122460;27;43594;-69
2023/10/20 07:21:35;;;;;;;0.60;0.60;;;19.70;74.80;;;;;;5126914;27;43506;-69
2023/10/20 07:24:04;;;;;;;0.60;0.60;;;19.70;74.80;;;;;;5127448;27;43488;-69
2023/10/20 07:26:32;;;;;;;0.70;0.70;;;19.70;74.90;;;;;;5127775;27;43411;-69
2023/10/20 07:29:00;;;;;;;0.63;0.63;;;19.60;74.80;;;;;;5126572;27;43920;-69
2023/10/20 07:31:29;;;;;;;0.70;0.70;;;19.60;74.90;;;;;;5126974;27;43401;-69
2023/10/20 07:33:58;;;;;;;0.60;0.60;;;19.50;75.40;;;;;;5125815;27;43421;-69
2023/10/20 07:36:26;;;;;;;0.70;0.70;;;19.60;75.30;;;;;;5126315;27;43455;-69
2023/10/20 07:38:54;;;;;;;0.83;0.83;;;19.70;74.90;;;;;;5125808;27;45697;-69
2023/10/20 07:41:22;;;;;;;0.57;0.57;;;19.90;74.50;;;;;;5126927;27;43323;-68
2023/10/20 07:43:50;;;;;;;0.60;0.60;;;20.00;74.00;;;;;;5127578;27;43429;-70
2023/10/20 07:46:18;;;;;;;0.60;0.60;;;20.00;73.80;;;;;;5127073;27;43398;-69
2023/10/20 07:48:48;;;;;;;0.60;0.60;;;20.00;73.80;;;;;;5126254;27;43831;-70
2023/10/20 07:51:16;;;;;;;0.50;0.50;;;19.90;73.90;;;;;;5126661;27;43335;-71
2023/10/20 07:53:44;;;;;;;0.70;0.70;;;19.80;74.10;;;;;;5126883;27;43329;-70
2023/10/20 07:56:12;;;;;;;0.60;0.60;;;19.80;74.80;;;;;;5109757;27;43421;-70
2023/10/20 07:58:40;;;;;;;0.60;0.60;;;19.70;74.80;;;;;;5101065;27;43937;-70
2023/10/20 08:01:08;;;;;;;0.70;0.70;;;19.70;74.90;;;;;;5108162;27;44705;-70
2023/10/20 08:03:36;;;;;;;0.70;0.70;;;19.70;74.90;;;;;;5109068;27;43362;-70
2023/10/20 08:06:07;;;;;;;0.50;0.50;;;19.60;74.90;;;;;;5108921;27;43988;-70
2023/10/20 08:08:35;;;;;;;0.60;0.60;;;19.50;75.40;;;;;;5108175;27;43953;-70
2023/10/20 08:11:04;;;;;;;0.60;0.60;;;19.50;75.40;;;;;;5108371;27;43504;-70
2023/10/20 08:13:34;;;;;;;0.60;0.60;;;19.60;76.20;;;;;;5109714;27;43381;-70
2023/10/20 08:16:03;;;;;;;0.60;0.60;;;19.50;75.30;;;;;;5112887;27;43509;-70
2023/10/20 08:18:34;;;;;;;0.70;0.70;;;19.50;75.20;;;;;;5126169;27;43842;-69
2023/10/20 08:21:07;;;;;;;0.70;0.70;;;19.50;75.70;;;;;;5126874;27;43409;-69
2023/10/20 08:23:35;;;;;;;0.63;0.63;;;19.50;75.80;;;;;;5126373;27;43380;-69
2023/10/20 08:26:03;;;;;;;0.53;0.53;;;19.60;75.50;;;;;;5126943;27;43891;-69
2023/10/20 08:28:31;;;;;;;0.63;0.63;;;19.70;75.00;;;;;;5125561;27;43747;-70
2023/10/20 08:31:09;;;;;;;0.60;0.60;;;19.90;74.50;;;;;;5124608;27;43414;-69
2023/10/20 08:33:38;;;;;;;0.53;0.53;;;20.00;74.30;;;;;;5124676;27;43433;-70
2023/10/20 08:36:12;;;;;;;0.70;0.70;;;19.90;74.10;;;;;;5126618;27;43397;-70
2023/10/20 08:38:40;;;;;;;0.70;0.70;;;19.90;74.20;;;;;;5124086;27;46068;-70
2023/10/20 08:41:10;;;;;;;0.77;0.77;;;19.80;74.30;;;;;;5126325;27;43411;-70
2023/10/20 08:43:41;;;;;;;0.60;0.60;;;19.70;74.90;;;;;;5126287;27;43428;-70
2023/10/20 08:46:09;;;;;;;0.60;0.60;;;19.60;75.00;;;;;;5126570;27;43393;-70
2023/10/20 08:48:39;;;;;;;0.60;0.60;;;19.70;75.30;;;;;;5125740;27;43674;-69
2023/10/20 08:51:08;;;;;;;0.60;0.60;;;19.70;75.10;;;;;;5126347;27;43398;-70
2023/10/20 08:53:38;;;;;;;0.70;0.70;;;19.60;75.10;;;;;;5115408;27;43394;-70
2023/10/20 08:56:07;;;;;;;0.70;0.70;;;19.60;75.50;;;;;;5126384;27;43406;-70
2023/10/20 08:58:35;;;;;;;0.60;0.60;;;19.50;75.70;;;;;;5125251;27;43896;-69
2023/10/20 09:01:04;;;;;;;0.60;0.60;;;19.50;75.60;;;;;;5126196;27;43471;-69
2023/10/20 09:03:38;;;;;;;0.50;0.50;;;19.50;75.40;;;;;;5125179;27;43447;-69
2023/10/20 09:06:07;;;;;;;0.63;0.63;;;19.50;75.40;;;;;;5126048;27;43464;-70
2023/10/20 09:08:35;;;;;;;0.50;0.50;;;19.50;75.80;;;;;;5124991;27;43602;-69
2023/10/20 09:11:07;;;;;;;0.53;0.53;;;19.50;76.10;;;;;;5119775;27;43494;-70
2023/10/20 09:13:36;;;;;;;0.70;0.70;;;19.50;75.60;;;;;;5125537;27;43303;-70
2023/10/20 09:16:07;;;;;;;0.60;0.60;;;19.70;75.20;;;;;;5125882;27;43381;-69
2023/10/20 09:18:43;;;;;;;0.60;0.60;;;19.90;74.70;;;;;;5111901;27;46133;-69
2023/10/20 09:21:13;;;;;;;0.60;0.60;;;20.00;74.30;;;;;;5125607;27;44203;-70
2023/10/20 09:23:41;;;;;;;0.70;0.70;;;20.00;74.10;;;;;;5124669;27;43544;-69
2023/10/20 09:26:10;;;;;;;0.73;0.73;;;19.90;74.20;;;;;;5113271;27;43629;-65
2023/10/20 09:28:39;;;;;;;0.57;0.57;;;19.90;74.40;;;;;;5103928;27;45742;-66
2023/10/20 09:31:07;;;;;;;0.70;0.70;;;19.80;74.80;;;;;;5110690;27;44081;-66
2023/10/20 09:33:38;;;;;;;0.57;0.57;;;19.70;75.10;;;;;;5097336;27;43382;-66
2023/10/20 09:36:07;;;;;;;0.80;0.80;;;19.70;75.20;;;;;;5110456;27;43444;-66
2023/10/20 09:38:35;;;;;;;0.60;0.60;;;19.60;74.90;;;;;;5111009;27;43622;-67
2023/10/20 09:41:11;;;;;;;0.70;0.70;;;19.60;75.00;;;;;;5110238;27;43352;-66
2023/10/20 09:43:46;;;;;;;0.63;0.63;;;19.60;75.60;;;;;;5129037;27;43417;-66
2023/10/20 09:46:21;;;;;;;0.70;0.70;;;19.50;75.60;;;;;;5115034;27;43366;-66
2023/10/20 09:48:51;;;;;;;0.70;0.70;;;19.60;75.60;;;;;;5111218;27;43618;-66
2023/10/20 09:51:19;;;;;;;0.60;0.60;;;19.60;75.40;;;;;;5106792;27;43964;-66
2023/10/20 09:53:47;;;;;;;0.67;0.67;;;19.50;75.40;;;;;;5113971;27;43326;-66
2023/10/20 09:56:17;;;;;;;0.70;0.70;;;19.50;75.80;;;;;;5114237;27;43429;-66
2023/10/20 09:58:45;;;;;;;0.70;0.70;;;19.50;76.00;;;;;;5112378;27;43949;-66
2023/10/20 10:01:14;;;;;;;0.70;0.70;;;19.60;76.40;;;;;;5113658;27;43331;-66
2023/10/20 10:03:42;;;;;;;0.67;0.67;;;19.70;75.30;;;;;;5113000;27;43468;-66
2023/10/20 10:06:11;;;;;;;0.80;0.80;;;19.80;74.70;;;;;;5113651;27;43446;-66
2023/10/20 10:08:39;;;;;;;0.60;0.60;;;19.90;74.40;;;;;;5106650;27;43830;-67
2023/10/20 10:11:26;;;;;;;0.80;0.80;;;19.90;74.40;;;;;;5112107;27;43411;-66
2023/10/20 10:13:54;;;;;;;0.70;0.70;;;19.80;74.30;;;;;;5114473;27;43515;-66
2023/10/20 10:16:23;;;;;;;0.73;0.73;;;19.80;74.60;;;;;;5123973;27;43377;-70
2023/10/20 10:18:54;;;;;;;0.70;0.70;;;19.70;75.20;;;;;;5127484;27;43603;-69
2023/10/20 10:21:25;;;;;;;0.63;0.63;;;19.60;75.20;;;;;;5126657;27;44288;-70
2023/10/20 10:24:09;;;;;;;0.60;0.60;;;19.60;75.30;;;;;;5127296;27;43411;-69
2023/10/20 10:26:46;;;;;;;0.60;0.60;;;19.60;75.10;;;;;;5116357;27;43478;-70
2023/10/20 10:29:15;;;;;;;0.70;0.70;;;19.60;75.30;;;;;;5123320;27;45870;-68
2023/10/20 10:31:43;;;;;;;0.63;0.60;;;19.50;76.40;;;;;;5126731;27;44400;-69
2023/10/20 10:34:30;;;;;;;0.57;0.57;;;19.50;75.80;;;;;;5126583;27;43482;-66
2023/10/20 10:36:58;;;;;;;0.70;0.70;;;19.60;75.80;;;;;;5113683;27;43903;-66
2023/10/20 10:39:28;;;;;;;0.63;0.63;;;19.50;75.60;;;;;;5112583;27;43941;-65
2023/10/20 10:42:02;;;;;;;0.60;0.60;;;19.50;75.60;;;;;;5112928;27;43428;-66
2023/10/20 10:44:33;;;;;;;0.60;0.60;;;19.50;75.90;;;;;;5110703;27;43418;-65
2023/10/20 10:47:05;;;;;;;0.77;0.77;;;19.50;76.20;;;;;;5113620;27;43374;-65
2023/10/20 10:49:33;;;;;;;0.53;0.53;;;19.50;75.70;;;;;;5112940;27;44424;-66
2023/10/20 10:52:07;;;;;;;0.80;0.80;;;19.70;75.40;;;;;;5111331;27;43516;-65
2023/10/20 10:54:35;;;;;;;0.67;0.67;;;19.80;74.70;;;;;;5112440;27;43366;-66
2023/10/20 10:57:05;;;;;;;0.70;0.70;;;19.90;74.40;;;;;;5113559;27;43976;-66
2023/10/20 10:59:33;;;;;;;0.57;0.57;;;19.90;74.30;;;;;;5112574;27;43650;-65
2023/10/20 11:02:03;;;;;;;0.53;0.53;;;19.90;74.30;;;;;;5112996;27;43454;-66
2023/10/20 11:04:31;;;;;;;0.60;0.60;;;19.80;74.50;;;;;;5107146;27;43513;-65
2023/10/20 11:07:00;;;;;;;0.70;0.70;;;19.80;74.70;;;;;;5113185;27;43457;-65
2023/10/20 11:09:29;;;;;;;0.77;0.77;;;19.70;76.10;;;;;;5112578;27;43742;-66
2023/10/20 11:11:57;;;;;;;0.57;0.57;;;19.60;75.20;;;;;;5112278;27;43414;-65
2023/10/20 11:14:27;;;;;;;0.60;0.60;;;19.60;75.20;;;;;;5112637;27;43371;-66
2023/10/20 11:16:55;;;;;;;0.73;0.73;;;19.60;75.30;;;;;;5113516;27;43511;-65
2023/10/20 11:19:23;;;;;;;0.60;0.60;;;19.60;75.40;;;;;;5112602;27;43606;-66
2023/10/20 11:21:52;;;;;;;0.70;0.70;;;19.50;75.80;;;;;;5112434;27;43465;-65
2023/10/20 11:24:28;;;;;;;0.60;0.60;;;19.50;75.70;;;;;;5112483;27;43488;-66
2023/10/20 11:26:58;;;;;;;0.80;0.80;;;19.50;75.60;;;;;;5127195;27;43938;-69
2023/10/20 11:29:28;;;;;;;0.83;0.83;;;19.50;75.60;;;;;;5125993;27;43843;-69
2023/10/20 11:32:07;;;;;;;0.80;0.80;;;19.50;75.60;;;;;;5112600;27;43360;-69
2023/10/20 11:34:35;;;;;;;0.70;0.70;;;19.50;76.10;;;;;;5118659;27;43564;-69
2023/10/20 11:37:04;;;;;;;0.70;0.70;;;19.50;75.90;;;;;;5121081;27;43300;-69
2023/10/20 11:39:36;;;;;;;1.40;0.80;;;19.60;75.50;;;;;;5118184;27;43826;-69
2023/10/20 11:42:04;;;;;;;0.57;0.57;;;19.80;75.10;;;;;;5123057;27;43490;-69
2023/10/20 11:44:33;;;;;;;0.80;0.80;;;19.90;74.60;;;;;;5119100;27;43405;-67
2023/10/20 11:47:02;;;;;;;0.80;0.80;;;19.90;74.30;;;;;;5105090;27;43505;-65
2023/10/20 11:49:30;;;;;;;0.80;0.80;;;19.90;74.30;;;;;;5105533;27;43610;-66
2023/10/20 11:51:58;;;;;;;1.10;1.10;;;19.90;74.40;;;;;;5105924;27;43490;-66
2023/10/20 11:54:26;;;;;;;2.03;0.90;;;19.80;74.40;;;;;;5103136;27;43489;-65
2023/10/20 11:56:54;;;;;;;0.90;0.90;;;19.70;75.00;;;;;;5109181;27;43491;-66
2023/10/20 11:59:22;;;;;;;0.70;0.70;;;19.70;75.30;;;;;;5103676;27;43681;-65
2023/10/20 12:01:52;;;;;;;0.70;0.70;;;19.70;75.40;;;;;;5106974;27;44775;-66
2023/10/20 12:04:20;;;;;;;0.80;0.80;;;19.70;75.30;;;;;;5106021;27;43347;-66
2023/10/20 12:06:48;;;;;;;0.67;0.67;;;19.60;75.30;;;;;;5106486;27;43388;-66
2023/10/20 12:09:19;;;;;;;0.80;0.80;;;19.50;75.60;;;;;;5103915;27;46302;-66
2023/10/20 12:11:47;;;;;;;0.80;0.80;;;19.50;75.80;;;;;;5106424;27;43398;-65
2023/10/20 12:14:15;;;;;;;0.80;0.80;;;19.50;75.70;;;;;;5105863;27;43686;-66
2023/10/20 12:16:44;;;;;;;0.80;0.80;;;19.50;75.50;;;;;;5107605;27;43384;-65
2023/10/20 12:19:14;;;;;;;0.70;0.70;;;19.50;75.60;;;;;;5101148;27;46118;-66
2023/10/20 12:21:42;;;;;;;1.30;0.93;;;19.50;75.70;;;;;;5111514;27;44481;-67
2023/10/20 12:24:10;;;;;;;0.90;0.90;;;19.50;76.20;;;;;;5109025;27;43400;-66
2023/10/20 12:26:39;;;;;;;0.70;0.70;;;19.50;75.90;;;;;;5108245;27;43450;-66
2023/10/20 12:29:07;;;;;;;1.00;1.00;;;19.70;75.50;;;;;;5107039;27;44150;-65
2023/10/20 12:31:35;;;;;;;0.80;0.80;;;19.80;74.90;;;;;;5106290;27;44796;-65
2023/10/20 12:34:05;;;;;;;0.83;0.80;;;20.00;74.60;;;;;;5104858;27;43475;-65
2023/10/20 12:36:35;;;;;;;0.80;0.80;;;20.00;74.30;;;;;;5106838;27;43327;-70
2023/10/20 12:39:06;;;;;;;0.80;0.80;;;20.00;74.40;;;;;;5104896;27;43586;-70
2023/10/20 12:41:35;;;;;;;0.60;0.60;;;19.90;74.50;;;;;;5106549;27;43608;-73
2023/10/20 12:44:04;;;;;;;0.60;0.60;;;19.80;74.60;;;;;;5103520;27;43476;-72
2023/10/20 12:46:32;;;;;;;0.80;0.80;;;19.70;75.20;;;;;;5103240;27;43600;-72
2023/10/20 12:49:00;;;;;;;0.63;0.63;;;19.70;75.30;;;;;;5101880;27;43908;-72
2023/10/20 12:51:28;;;;;;;0.73;0.73;;;19.70;75.30;;;;;;5100974;27;43537;-72
2023/10/20 12:53:58;;;;;;;0.80;0.80;;;19.60;75.10;;;;;;5105823;27;43365;-71
2023/10/20 12:56:27;;;;;;;0.87;0.87;;;19.60;75.30;;;;;;5104530;27;43398;-70
2023/10/20 12:58:55;;;;;;;0.77;0.77;;;19.60;75.80;;;;;;5109030;27;43757;-70
2023/10/20 13:01:23;;;;;;;0.80;0.80;;;19.60;75.90;;;;;;5101732;27;43433;-70
2023/10/20 13:03:51;;;;;;;0.73;0.73;;;19.60;75.80;;;;;;5107736;27;43381;-70
2023/10/20 13:06:19;;;;;;;0.67;0.67;;;19.50;75.50;;;;;;5103505;27;43455;-70
2023/10/20 13:08:47;;;;;;;0.80;0.80;;;19.50;75.60;;;;;;5101421;27;43602;-70
2023/10/20 13:11:16;;;;;;;0.70;0.70;;;19.50;75.80;;;;;;5105713;27;44374;-70
2023/10/20 13:13:44;;;;;;;0.70;0.70;;;19.50;76.20;;;;;;5108431;27;43468;-70